Chelmsford, MA

8:44 PM EDT on April 28, 2017 (GMT -0400)
Pine Hill | | Change Station

Elev 289 ft 42.59 °N, 71.39 °W | Updated 5 seconds ago

Mostly Cloudy
Mostly Cloudy
72.7 °F
Feels Like 72.7 °F
N
0.0
Wind Variable Wind from WSW
Gusts 1.0 mph

Today
High -- | Low -- °F
--% Chance of Precip.
Yesterday
High -- | Low -- °F
Precip. -- in
Pressure 29.97 in
Visibility 10.0 miles
Clouds Mostly Cloudy 12000 ft
Dew Point 41.9 °F
Humidity 33%
Rainfall 0.00 in
Snow Depth Not available.
5:44 AM 7:42 PM
Waxing Crescent, 9% visible
METAR KBED 282356Z 00000KT 10SM BKN120 24/10 A2993 RMK AO2 SLP147 T02390100 10278 20239 53011
Pressure 29.97 in
Visibility 10.0 miles
Clouds Mostly Cloudy 12000 ft
Dew Point 41.9 °F
Humidity 33%
Rainfall 0.00 in
Snow Depth Not available.
5:44 AM 7:42 PM
Waxing Crescent, 9% visible
METAR KBED 282356Z 00000KT 10SM BKN120 24/10 A2993 RMK AO2 SLP147 T02390100 10278 20239 53011

Get Severe Weather Alerts

Thanks for signing up!

Be on the lookout for a verification email in your inbox.

You'll start receiving the daily forecast at 8 AM.

×

10-Day Weather Forecast

Almanac

Astronomy

Apr. 28, 2017 Rise Set
Actual Time
Civil Twilight
Nautical Twilight
Astronomical Twilight
Moon
Length of Visible Light
Length of Day
Tomorrow will be .
, % of the Moon is Illuminated

Today's Extremes

State Highs State Lows

Community

WunderPhotos

WunderBlog® & News

Nearby

Air Quality

  Air Quality AQ Index Pollutant
Not available.

Snow Depth

Station Depth Elevation

Earthquake Activity

City Distance Mag. Time & Date
Minimum magnitude displayed is 2.5.

Coastal Water Temperatures

Place Temperature

Stations

Nearby Weather Stations

Station Location Temp. Windchill Dew Point Humidity Wind Precip. Elev Updated Type
                   

Watches & Warnings

There are currently no watches in effect.